sensor_id;sensor_type;location;lat;lon;timestamp;P1;durP1;ratioP1;P2;durP2;ratioP2
908;SDS011;441;51.192;6.788;2023-06-24T00:01:29;24.53;;;23.37;;
908;SDS011;441;51.192;6.788;2023-06-24T00:03:58;25.87;;;24.67;;
908;SDS011;441;51.192;6.788;2023-06-24T00:06:25;27.30;;;26.10;;
908;SDS011;441;51.192;6.788;2023-06-24T00:08:53;25.20;;;23.70;;
908;SDS011;441;51.192;6.788;2023-06-24T00:11:25;26.07;;;24.87;;
908;SDS011;441;51.192;6.788;2023-06-24T00:13:53;25.13;;;23.93;;
908;SDS011;441;51.192;6.788;2023-06-24T00:16:20;26.27;;;25.17;;
908;SDS011;441;51.192;6.788;2023-06-24T00:18:52;24.70;;;23.57;;
908;SDS011;441;51.192;6.788;2023-06-24T00:21:20;24.77;;;23.57;;
908;SDS011;441;51.192;6.788;2023-06-24T00:23:47;25.47;;;24.17;;
908;SDS011;441;51.192;6.788;2023-06-24T00:26:16;24.00;;;23.00;;
908;SDS011;441;51.192;6.788;2023-06-24T00:28:43;25.30;;;23.93;;
908;SDS011;441;51.192;6.788;2023-06-24T00:31:10;30.27;;;28.87;;
908;SDS011;441;51.192;6.788;2023-06-24T00:33:37;25.37;;;24.17;;
908;SDS011;441;51.192;6.788;2023-06-24T00:36:04;26.10;;;24.70;;
908;SDS011;441;51.192;6.788;2023-06-24T00:38:33;25.10;;;24.00;;
908;SDS011;441;51.192;6.788;2023-06-24T00:41:00;25.80;;;24.20;;
908;SDS011;441;51.192;6.788;2023-06-24T00:43:28;25.30;;;24.00;;
908;SDS011;441;51.192;6.788;2023-06-24T00:45:56;23.87;;;22.87;;
908;SDS011;441;51.192;6.788;2023-06-24T00:48:23;24.03;;;22.73;;
908;SDS011;441;51.192;6.788;2023-06-24T00:50:50;25.17;;;24.07;;
908;SDS011;441;51.192;6.788;2023-06-24T00:53:17;25.97;;;24.77;;
908;SDS011;441;51.192;6.788;2023-06-24T00:55:49;25.03;;;23.93;;
908;SDS011;441;51.192;6.788;2023-06-24T00:58:17;26.07;;;24.77;;
908;SDS011;441;51.192;6.788;2023-06-24T01:00:47;25.30;;;24.17;;
908;SDS011;441;51.192;6.788;2023-06-24T01:03:22;26.20;;;24.90;;
908;SDS011;441;51.192;6.788;2023-06-24T01:05:50;24.60;;;23.30;;
908;SDS011;441;51.192;6.788;2023-06-24T01:08:18;24.30;;;23.20;;
908;SDS011;441;51.192;6.788;2023-06-24T01:10:47;24.00;;;22.80;;
908;SDS011;441;51.192;6.788;2023-06-24T01:13:14;24.43;;;23.23;;
908;SDS011;441;51.192;6.788;2023-06-24T01:15:41;26.03;;;24.77;;
908;SDS011;441;51.192;6.788;2023-06-24T01:18:10;25.10;;;24.00;;
908;SDS011;441;51.192;6.788;2023-06-24T01:20:44;25.50;;;24.23;;
908;SDS011;441;51.192;6.788;2023-06-24T01:23:20;24.37;;;23.30;;
908;SDS011;441;51.192;6.788;2023-06-24T01:31:58;22.73;;;21.73;;
908;SDS011;441;51.192;6.788;2023-06-24T01:34:28;23.20;;;22.20;;
908;SDS011;441;51.192;6.788;2023-06-24T01:37:00;25.00;;;23.80;;
908;SDS011;441;51.192;6.788;2023-06-24T01:39:37;24.43;;;23.40;;
908;SDS011;441;51.192;6.788;2023-06-24T01:42:12;24.50;;;23.40;;
908;SDS011;441;51.192;6.788;2023-06-24T01:44:43;25.00;;;23.90;;
908;SDS011;441;51.192;6.788;2023-06-24T01:47:15;23.93;;;22.83;;
908;SDS011;441;51.192;6.788;2023-06-24T01:49:47;23.80;;;22.73;;
908;SDS011;441;51.192;6.788;2023-06-24T01:52:18;23.80;;;22.60;;
908;SDS011;441;51.192;6.788;2023-06-24T01:54:49;24.03;;;22.80;;
908;SDS011;441;51.192;6.788;2023-06-24T01:57:18;24.00;;;23.00;;
908;SDS011;441;51.192;6.788;2023-06-24T01:59:46;23.63;;;22.57;;
908;SDS011;441;51.192;6.788;2023-06-24T02:02:17;23.60;;;22.50;;
908;SDS011;441;51.192;6.788;2023-06-24T02:04:45;24.50;;;23.50;;
908;SDS011;441;51.192;6.788;2023-06-24T02:07:12;25.57;;;24.47;;
908;SDS011;441;51.192;6.788;2023-06-24T02:09:40;25.17;;;24.07;;
908;SDS011;441;51.192;6.788;2023-06-24T02:12:09;23.63;;;22.63;;
908;SDS011;441;51.192;6.788;2023-06-24T02:14:36;23.90;;;22.80;;
908;SDS011;441;51.192;6.788;2023-06-24T02:17:05;23.93;;;22.70;;
908;SDS011;441;51.192;6.788;2023-06-24T02:19:37;26.53;;;25.13;;
908;SDS011;441;51.192;6.788;2023-06-24T02:22:05;22.90;;;21.87;;
908;SDS011;441;51.192;6.788;2023-06-24T02:24:35;23.60;;;22.57;;
908;SDS011;441;51.192;6.788;2023-06-24T02:27:04;25.60;;;24.40;;
908;SDS011;441;51.192;6.788;2023-06-24T02:29:32;23.27;;;22.37;;
908;SDS011;441;51.192;6.788;2023-06-24T02:32:01;22.13;;;20.93;;
908;SDS011;441;51.192;6.788;2023-06-24T02:34:28;23.90;;;22.70;;
908;SDS011;441;51.192;6.788;2023-06-24T02:36:57;23.93;;;22.73;;
908;SDS011;441;51.192;6.788;2023-06-24T02:39:24;24.20;;;23.10;;
908;SDS011;441;51.192;6.788;2023-06-24T02:41:50;22.90;;;21.90;;
908;SDS011;441;51.192;6.788;2023-06-24T02:44:17;24.83;;;23.70;;
908;SDS011;441;51.192;6.788;2023-06-24T02:46:44;24.33;;;22.97;;
908;SDS011;441;51.192;6.788;2023-06-24T02:49:14;23.47;;;22.57;;
908;SDS011;441;51.192;6.788;2023-06-24T02:51:43;23.23;;;21.83;;
908;SDS011;441;51.192;6.788;2023-06-24T02:54:12;22.30;;;21.30;;
908;SDS011;441;51.192;6.788;2023-06-24T02:56:40;23.40;;;22.37;;
908;SDS011;441;51.192;6.788;2023-06-24T02:59:09;24.10;;;23.00;;
908;SDS011;441;51.192;6.788;2023-06-24T03:01:36;24.10;;;23.10;;
908;SDS011;441;51.192;6.788;2023-06-24T03:04:05;22.70;;;21.50;;
908;SDS011;441;51.192;6.788;2023-06-24T03:06:32;24.30;;;23.10;;
908;SDS011;441;51.192;6.788;2023-06-24T03:09:01;24.13;;;23.13;;
908;SDS011;441;51.192;6.788;2023-06-24T03:11:31;22.70;;;21.70;;
908;SDS011;441;51.192;6.788;2023-06-24T03:13:59;24.50;;;23.30;;
908;SDS011;441;51.192;6.788;2023-06-24T03:16:26;24.80;;;23.70;;
908;SDS011;441;51.192;6.788;2023-06-24T03:18:53;24.50;;;23.40;;
908;SDS011;441;51.192;6.788;2023-06-24T03:21:20;23.73;;;22.67;;
908;SDS011;441;51.192;6.788;2023-06-24T03:23:50;27.60;;;26.10;;
908;SDS011;441;51.192;6.788;2023-06-24T03:26:17;23.57;;;22.60;;
908;SDS011;441;51.192;6.788;2023-06-24T03:28:45;25.57;;;24.27;;
908;SDS011;441;51.192;6.788;2023-06-24T03:31:12;24.30;;;23.30;;
908;SDS011;441;51.192;6.788;2023-06-24T03:33:41;23.53;;;22.37;;
908;SDS011;441;51.192;6.788;2023-06-24T03:36:09;22.63;;;21.73;;
908;SDS011;441;51.192;6.788;2023-06-24T03:38:36;23.37;;;22.40;;
908;SDS011;441;51.192;6.788;2023-06-24T03:41:03;24.23;;;23.20;;
908;SDS011;441;51.192;6.788;2023-06-24T03:43:30;23.20;;;22.20;;
908;SDS011;441;51.192;6.788;2023-06-24T03:45:58;23.37;;;22.23;;
908;SDS011;441;51.192;6.788;2023-06-24T03:48:26;23.67;;;22.57;;
908;SDS011;441;51.192;6.788;2023-06-24T03:50:53;24.80;;;23.70;;
908;SDS011;441;51.192;6.788;2023-06-24T03:53:20;23.83;;;22.70;;
908;SDS011;441;51.192;6.788;2023-06-24T03:55:47;22.60;;;21.67;;
908;SDS011;441;51.192;6.788;2023-06-24T03:58:13;24.63;;;23.33;;
908;SDS011;441;51.192;6.788;2023-06-24T04:00:41;25.63;;;24.23;;
908;SDS011;441;51.192;6.788;2023-06-24T04:03:10;25.20;;;23.83;;
908;SDS011;441;51.192;6.788;2023-06-24T04:05:37;24.50;;;23.50;;
908;SDS011;441;51.192;6.788;2023-06-24T04:08:04;25.00;;;23.80;;
908;SDS011;441;51.192;6.788;2023-06-24T04:10:32;25.37;;;24.30;;
908;SDS011;441;51.192;6.788;2023-06-24T04:12:59;27.03;;;25.87;;
908;SDS011;441;51.192;6.788;2023-06-24T04:15:26;24.77;;;23.67;;
908;SDS011;441;51.192;6.788;2023-06-24T04:17:53;25.30;;;24.10;;
908;SDS011;441;51.192;6.788;2023-06-24T04:20:21;24.60;;;23.43;;
908;SDS011;441;51.192;6.788;2023-06-24T04:22:48;26.37;;;25.27;;
908;SDS011;441;51.192;6.788;2023-06-24T04:25:15;25.73;;;24.63;;
908;SDS011;441;51.192;6.788;2023-06-24T04:27:42;25.53;;;24.43;;
908;SDS011;441;51.192;6.788;2023-06-24T04:30:09;23.80;;;22.80;;
908;SDS011;441;51.192;6.788;2023-06-24T04:32:37;27.43;;;26.13;;
908;SDS011;441;51.192;6.788;2023-06-24T04:35:04;24.77;;;23.67;;
908;SDS011;441;51.192;6.788;2023-06-24T04:37:32;26.07;;;24.67;;
908;SDS011;441;51.192;6.788;2023-06-24T04:40:00;26.97;;;25.67;;
908;SDS011;441;51.192;6.788;2023-06-24T04:42:28;26.17;;;25.00;;
908;SDS011;441;51.192;6.788;2023-06-24T04:44:55;27.73;;;26.43;;
908;SDS011;441;51.192;6.788;2023-06-24T04:47:22;26.37;;;25.07;;
908;SDS011;441;51.192;6.788;2023-06-24T04:49:49;27.00;;;25.60;;
908;SDS011;441;51.192;6.788;2023-06-24T04:52:15;27.67;;;26.10;;
908;SDS011;441;51.192;6.788;2023-06-24T04:54:44;27.53;;;26.13;;
908;SDS011;441;51.192;6.788;2023-06-24T04:57:22;26.83;;;25.63;;
908;SDS011;441;51.192;6.788;2023-06-24T04:59:50;26.33;;;25.13;;
908;SDS011;441;51.192;6.788;2023-06-24T05:02:16;26.57;;;25.20;;
908;SDS011;441;51.192;6.788;2023-06-24T05:04:43;25.53;;;24.43;;
908;SDS011;441;51.192;6.788;2023-06-24T05:07:10;28.07;;;26.87;;
908;SDS011;441;51.192;6.788;2023-06-24T05:09:37;28.07;;;26.80;;
908;SDS011;441;51.192;6.788;2023-06-24T05:12:06;26.57;;;25.30;;
908;SDS011;441;51.192;6.788;2023-06-24T05:14:34;26.57;;;25.43;;
908;SDS011;441;51.192;6.788;2023-06-24T05:17:01;27.00;;;25.80;;
908;SDS011;441;51.192;6.788;2023-06-24T05:19:28;27.63;;;26.43;;
908;SDS011;441;51.192;6.788;2023-06-24T05:21:55;26.30;;;25.10;;
908;SDS011;441;51.192;6.788;2023-06-24T05:24:22;28.00;;;26.80;;
908;SDS011;441;51.192;6.788;2023-06-24T05:26:50;27.80;;;26.50;;
908;SDS011;441;51.192;6.788;2023-06-24T05:29:18;27.17;;;25.40;;
908;SDS011;441;51.192;6.788;2023-06-24T05:31:45;24.90;;;23.80;;
908;SDS011;441;51.192;6.788;2023-06-24T05:34:12;26.80;;;25.50;;
908;SDS011;441;51.192;6.788;2023-06-24T05:36:39;29.67;;;27.90;;
908;SDS011;441;51.192;6.788;2023-06-24T05:39:06;26.53;;;25.07;;
908;SDS011;441;51.192;6.788;2023-06-24T05:41:33;26.00;;;24.90;;
908;SDS011;441;51.192;6.788;2023-06-24T05:44:01;26.67;;;25.50;;
908;SDS011;441;51.192;6.788;2023-06-24T05:46:30;29.23;;;27.77;;
908;SDS011;441;51.192;6.788;2023-06-24T05:48:57;26.90;;;25.70;;
908;SDS011;441;51.192;6.788;2023-06-24T05:51:24;26.70;;;25.40;;
908;SDS011;441;51.192;6.788;2023-06-24T05:53:51;26.60;;;25.40;;
908;SDS011;441;51.192;6.788;2023-06-24T05:56:19;28.40;;;27.10;;
908;SDS011;441;51.192;6.788;2023-06-24T05:58:46;28.27;;;27.07;;
908;SDS011;441;51.192;6.788;2023-06-24T06:01:13;28.80;;;27.50;;
908;SDS011;441;51.192;6.788;2023-06-24T06:03:42;29.23;;;27.87;;
908;SDS011;441;51.192;6.788;2023-06-24T06:06:08;28.73;;;27.33;;
908;SDS011;441;51.192;6.788;2023-06-24T06:08:35;27.67;;;26.50;;
908;SDS011;441;51.192;6.788;2023-06-24T06:11:02;28.37;;;27.17;;
908;SDS011;441;51.192;6.788;2023-06-24T06:13:29;28.57;;;27.33;;
908;SDS011;441;51.192;6.788;2023-06-24T06:15:56;32.30;;;30.70;;
908;SDS011;441;51.192;6.788;2023-06-24T06:18:24;29.20;;;27.77;;
908;SDS011;441;51.192;6.788;2023-06-24T06:20:52;29.83;;;28.30;;
908;SDS011;441;51.192;6.788;2023-06-24T06:23:19;29.67;;;28.07;;
908;SDS011;441;51.192;6.788;2023-06-24T06:25:46;29.47;;;28.10;;
908;SDS011;441;51.192;6.788;2023-06-24T06:28:12;27.83;;;26.63;;
908;SDS011;441;51.192;6.788;2023-06-24T06:30:39;30.10;;;28.60;;
908;SDS011;441;51.192;6.788;2023-06-24T06:33:06;30.07;;;28.67;;
908;SDS011;441;51.192;6.788;2023-06-24T06:35:33;29.57;;;28.23;;
908;SDS011;441;51.192;6.788;2023-06-24T06:38:01;30.33;;;28.73;;
908;SDS011;441;51.192;6.788;2023-06-24T06:40:28;30.50;;;28.90;;
908;SDS011;441;51.192;6.788;2023-06-24T06:42:55;29.57;;;28.27;;
908;SDS011;441;51.192;6.788;2023-06-24T06:45:22;28.70;;;27.27;;
908;SDS011;441;51.192;6.788;2023-06-24T06:47:49;29.50;;;28.07;;
908;SDS011;441;51.192;6.788;2023-06-24T06:50:16;30.00;;;28.60;;
908;SDS011;441;51.192;6.788;2023-06-24T06:52:43;30.33;;;29.00;;
908;SDS011;441;51.192;6.788;2023-06-24T06:55:12;31.77;;;30.37;;
908;SDS011;441;51.192;6.788;2023-06-24T06:57:38;29.00;;;27.60;;
908;SDS011;441;51.192;6.788;2023-06-24T07:00:06;27.77;;;26.53;;
908;SDS011;441;51.192;6.788;2023-06-24T07:02:33;29.03;;;27.70;;
908;SDS011;441;51.192;6.788;2023-06-24T07:05:00;30.03;;;28.77;;
908;SDS011;441;51.192;6.788;2023-06-24T07:07:28;29.73;;;28.33;;
908;SDS011;441;51.192;6.788;2023-06-24T07:09:55;28.67;;;27.47;;
908;SDS011;441;51.192;6.788;2023-06-24T07:12:23;28.37;;;27.07;;
908;SDS011;441;51.192;6.788;2023-06-24T07:14:50;28.77;;;27.37;;
908;SDS011;441;51.192;6.788;2023-06-24T07:17:17;27.33;;;26.00;;
908;SDS011;441;51.192;6.788;2023-06-24T07:19:44;27.90;;;26.43;;
908;SDS011;441;51.192;6.788;2023-06-24T07:22:10;29.37;;;27.80;;
908;SDS011;441;51.192;6.788;2023-06-24T07:24:37;28.20;;;26.87;;
908;SDS011;441;51.192;6.788;2023-06-24T07:27:05;28.53;;;27.23;;
908;SDS011;441;51.192;6.788;2023-06-24T07:29:33;27.63;;;26.43;;
908;SDS011;441;51.192;6.788;2023-06-24T07:32:00;26.77;;;25.67;;
908;SDS011;441;51.192;6.788;2023-06-24T07:34:28;27.27;;;26.17;;
908;SDS011;441;51.192;6.788;2023-06-24T07:36:56;29.67;;;28.43;;
908;SDS011;441;51.192;6.788;2023-06-24T07:39:26;26.43;;;25.43;;
908;SDS011;441;51.192;6.788;2023-06-24T07:41:57;28.10;;;27.00;;
908;SDS011;441;51.192;6.788;2023-06-24T07:44:25;27.53;;;26.30;;
908;SDS011;441;51.192;6.788;2023-06-24T07:46:54;27.30;;;26.20;;
908;SDS011;441;51.192;6.788;2023-06-24T07:49:24;26.70;;;25.60;;
908;SDS011;441;51.192;6.788;2023-06-24T07:51:51;29.03;;;27.57;;
908;SDS011;441;51.192;6.788;2023-06-24T07:54:20;26.10;;;25.07;;
908;SDS011;441;51.192;6.788;2023-06-24T07:56:50;26.40;;;25.40;;
908;SDS011;441;51.192;6.788;2023-06-24T07:59:16;28.60;;;27.40;;
908;SDS011;441;51.192;6.788;2023-06-24T08:01:43;28.00;;;26.80;;
908;SDS011;441;51.192;6.788;2023-06-24T08:04:14;27.53;;;26.23;;
908;SDS011;441;51.192;6.788;2023-06-24T08:06:45;30.00;;;28.60;;
908;SDS011;441;51.192;6.788;2023-06-24T08:09:15;27.73;;;26.60;;
908;SDS011;441;51.192;6.788;2023-06-24T08:11:45;29.23;;;28.03;;
908;SDS011;441;51.192;6.788;2023-06-24T08:14:14;27.30;;;26.20;;
908;SDS011;441;51.192;6.788;2023-06-24T08:16:43;27.80;;;26.70;;
908;SDS011;441;51.192;6.788;2023-06-24T08:19:12;28.40;;;27.30;;
908;SDS011;441;51.192;6.788;2023-06-24T08:21:45;28.67;;;27.60;;
908;SDS011;441;51.192;6.788;2023-06-24T08:24:16;29.47;;;28.27;;
908;SDS011;441;51.192;6.788;2023-06-24T08:26:46;27.17;;;26.13;;
908;SDS011;441;51.192;6.788;2023-06-24T08:29:15;29.90;;;28.60;;
908;SDS011;441;51.192;6.788;2023-06-24T08:31:43;29.07;;;27.67;;
908;SDS011;441;51.192;6.788;2023-06-24T08:34:12;30.73;;;29.30;;
908;SDS011;441;51.192;6.788;2023-06-24T08:36:39;29.67;;;28.47;;
908;SDS011;441;51.192;6.788;2023-06-24T08:39:10;30.60;;;29.20;;
908;SDS011;441;51.192;6.788;2023-06-24T08:41:42;29.13;;;27.73;;
908;SDS011;441;51.192;6.788;2023-06-24T08:44:10;28.43;;;27.13;;
908;SDS011;441;51.192;6.788;2023-06-24T08:46:40;30.53;;;29.03;;
908;SDS011;441;51.192;6.788;2023-06-24T08:49:09;29.50;;;28.10;;
908;SDS011;441;51.192;6.788;2023-06-24T08:51:44;28.50;;;27.17;;
908;SDS011;441;51.192;6.788;2023-06-24T08:54:15;28.70;;;27.30;;
908;SDS011;441;51.192;6.788;2023-06-24T08:56:45;30.13;;;28.93;;
908;SDS011;441;51.192;6.788;2023-06-24T08:59:12;30.83;;;29.30;;
908;SDS011;441;51.192;6.788;2023-06-24T09:01:44;28.80;;;27.50;;
908;SDS011;441;51.192;6.788;2023-06-24T09:04:11;29.00;;;27.77;;
908;SDS011;441;51.192;6.788;2023-06-24T09:06:39;30.47;;;28.97;;
908;SDS011;441;51.192;6.788;2023-06-24T09:09:16;28.30;;;27.20;;
908;SDS011;441;51.192;6.788;2023-06-24T09:14:19;30.97;;;29.50;;
908;SDS011;441;51.192;6.788;2023-06-24T09:16:50;29.20;;;28.00;;
908;SDS011;441;51.192;6.788;2023-06-24T09:19:20;28.57;;;27.37;;
908;SDS011;441;51.192;6.788;2023-06-24T09:21:49;28.90;;;27.73;;
908;SDS011;441;51.192;6.788;2023-06-24T09:24:16;27.37;;;26.27;;
908;SDS011;441;51.192;6.788;2023-06-24T09:26:44;29.03;;;27.70;;
908;SDS011;441;51.192;6.788;2023-06-24T09:29:11;29.67;;;28.47;;
908;SDS011;441;51.192;6.788;2023-06-24T09:31:45;28.63;;;27.43;;
908;SDS011;441;51.192;6.788;2023-06-24T09:34:13;28.90;;;27.70;;
908;SDS011;441;51.192;6.788;2023-06-24T09:36:41;30.13;;;28.87;;
908;SDS011;441;51.192;6.788;2023-06-24T09:39:11;28.80;;;27.60;;
908;SDS011;441;51.192;6.788;2023-06-24T09:41:40;28.60;;;27.23;;
908;SDS011;441;51.192;6.788;2023-06-24T09:44:08;29.60;;;28.50;;
908;SDS011;441;51.192;6.788;2023-06-24T09:46:37;27.83;;;26.63;;
908;SDS011;441;51.192;6.788;2023-06-24T09:49:04;30.87;;;29.67;;
908;SDS011;441;51.192;6.788;2023-06-24T09:51:32;28.17;;;26.90;;
908;SDS011;441;51.192;6.788;2023-06-24T09:54:01;26.17;;;25.08;;
908;SDS011;441;51.192;6.788;2023-06-24T09:56:31;28.97;;;27.60;;
908;SDS011;441;51.192;6.788;2023-06-24T09:59:01;29.33;;;28.13;;
908;SDS011;441;51.192;6.788;2023-06-24T10:01:30;30.50;;;29.27;;
908;SDS011;441;51.192;6.788;2023-06-24T10:03:58;31.33;;;30.03;;
908;SDS011;441;51.192;6.788;2023-06-24T10:06:26;30.47;;;29.20;;
908;SDS011;441;51.192;6.788;2023-06-24T10:08:54;30.57;;;29.23;;
908;SDS011;441;51.192;6.788;2023-06-24T10:11:22;29.17;;;27.87;;
908;SDS011;441;51.192;6.788;2023-06-24T10:13:50;32.93;;;31.53;;
908;SDS011;441;51.192;6.788;2023-06-24T10:16:17;32.57;;;31.17;;
908;SDS011;441;51.192;6.788;2023-06-24T10:18:45;29.30;;;28.10;;
908;SDS011;441;51.192;6.788;2023-06-24T10:21:14;29.57;;;28.47;;
908;SDS011;441;51.192;6.788;2023-06-24T10:23:42;29.20;;;27.50;;
908;SDS011;441;51.192;6.788;2023-06-24T10:26:21;29.13;;;27.93;;
908;SDS011;441;51.192;6.788;2023-06-24T10:29:10;30.53;;;29.23;;
908;SDS011;441;51.192;6.788;2023-06-24T10:31:52;27.70;;;26.50;;
908;SDS011;441;51.192;6.788;2023-06-24T10:34:22;29.20;;;27.80;;
908;SDS011;441;51.192;6.788;2023-06-24T10:36:53;29.10;;;27.70;;
908;SDS011;441;51.192;6.788;2023-06-24T10:39:36;26.37;;;25.07;;
908;SDS011;441;51.192;6.788;2023-06-24T10:44:56;28.33;;;27.23;;
908;SDS011;441;51.192;6.788;2023-06-24T10:47:24;27.40;;;26.40;;
908;SDS011;441;51.192;6.788;2023-06-24T10:49:51;27.77;;;26.67;;
908;SDS011;441;51.192;6.788;2023-06-24T10:52:19;27.20;;;26.10;;
908;SDS011;441;51.192;6.788;2023-06-24T10:54:47;28.20;;;27.00;;
908;SDS011;441;51.192;6.788;2023-06-24T10:57:15;27.47;;;26.10;;
908;SDS011;441;51.192;6.788;2023-06-24T10:59:46;27.40;;;26.30;;
908;SDS011;441;51.192;6.788;2023-06-24T11:02:15;29.53;;;28.10;;
908;SDS011;441;51.192;6.788;2023-06-24T11:04:43;28.70;;;27.50;;
908;SDS011;441;51.192;6.788;2023-06-24T11:07:11;27.40;;;26.37;;
908;SDS011;441;51.192;6.788;2023-06-24T11:09:38;31.13;;;29.87;;
908;SDS011;441;51.192;6.788;2023-06-24T11:12:07;29.00;;;27.80;;
908;SDS011;441;51.192;6.788;2023-06-24T11:14:35;28.07;;;26.97;;
908;SDS011;441;51.192;6.788;2023-06-24T11:17:03;28.70;;;27.43;;
908;SDS011;441;51.192;6.788;2023-06-24T11:19:32;30.00;;;28.57;;
908;SDS011;441;51.192;6.788;2023-06-24T11:22:01;28.67;;;27.50;;
908;SDS011;441;51.192;6.788;2023-06-24T11:24:28;27.50;;;26.30;;
908;SDS011;441;51.192;6.788;2023-06-24T11:26:55;30.20;;;28.87;;
908;SDS011;441;51.192;6.788;2023-06-24T11:29:22;27.70;;;26.70;;
908;SDS011;441;51.192;6.788;2023-06-24T11:31:49;29.60;;;28.50;;
908;SDS011;441;51.192;6.788;2023-06-24T11:34:16;28.57;;;27.40;;
908;SDS011;441;51.192;6.788;2023-06-24T11:36:45;30.00;;;28.80;;
908;SDS011;441;51.192;6.788;2023-06-24T11:39:22;27.03;;;26.03;;
908;SDS011;441;51.192;6.788;2023-06-24T11:41:50;29.07;;;27.87;;
908;SDS011;441;51.192;6.788;2023-06-24T11:44:17;29.30;;;28.00;;
908;SDS011;441;51.192;6.788;2023-06-24T11:46:45;28.80;;;27.60;;
908;SDS011;441;51.192;6.788;2023-06-24T11:49:13;28.03;;;26.90;;
908;SDS011;441;51.192;6.788;2023-06-24T11:51:46;27.80;;;26.67;;
908;SDS011;441;51.192;6.788;2023-06-24T11:54:14;30.17;;;28.87;;
908;SDS011;441;51.192;6.788;2023-06-24T11:56:43;26.70;;;25.60;;
908;SDS011;441;51.192;6.788;2023-06-24T11:59:17;28.90;;;27.70;;
908;SDS011;441;51.192;6.788;2023-06-24T12:01:46;28.23;;;27.13;;
908;SDS011;441;51.192;6.788;2023-06-24T12:04:20;27.17;;;26.07;;
908;SDS011;441;51.192;6.788;2023-06-24T12:06:49;30.87;;;29.57;;
908;SDS011;441;51.192;6.788;2023-06-24T12:09:15;26.67;;;25.57;;
908;SDS011;441;51.192;6.788;2023-06-24T12:11:43;26.63;;;25.43;;
908;SDS011;441;51.192;6.788;2023-06-24T12:14:10;26.87;;;25.83;;
908;SDS011;441;51.192;6.788;2023-06-24T12:16:37;27.60;;;26.40;;
908;SDS011;441;51.192;6.788;2023-06-24T12:19:05;26.30;;;25.20;;
908;SDS011;441;51.192;6.788;2023-06-24T12:21:32;25.80;;;24.53;;
908;SDS011;441;51.192;6.788;2023-06-24T12:24:00;29.17;;;27.87;;
908;SDS011;441;51.192;6.788;2023-06-24T12:26:27;27.10;;;26.00;;
908;SDS011;441;51.192;6.788;2023-06-24T12:28:54;29.97;;;28.77;;
908;SDS011;441;51.192;6.788;2023-06-24T12:31:22;28.03;;;26.97;;
908;SDS011;441;51.192;6.788;2023-06-24T12:33:49;26.03;;;25.07;;
908;SDS011;441;51.192;6.788;2023-06-24T12:36:16;27.83;;;26.83;;
908;SDS011;441;51.192;6.788;2023-06-24T12:38:43;26.63;;;25.63;;
908;SDS011;441;51.192;6.788;2023-06-24T12:41:12;27.40;;;26.30;;
908;SDS011;441;51.192;6.788;2023-06-24T12:43:39;26.53;;;25.53;;
908;SDS011;441;51.192;6.788;2023-06-24T12:46:06;26.37;;;25.37;;
908;SDS011;441;51.192;6.788;2023-06-24T12:48:33;29.07;;;27.87;;
908;SDS011;441;51.192;6.788;2023-06-24T12:51:00;25.80;;;24.90;;
908;SDS011;441;51.192;6.788;2023-06-24T12:53:27;28.20;;;27.00;;
908;SDS011;441;51.192;6.788;2023-06-24T12:55:54;28.13;;;27.03;;
908;SDS011;441;51.192;6.788;2023-06-24T12:58:23;26.43;;;25.13;;
908;SDS011;441;51.192;6.788;2023-06-24T13:00:51;25.40;;;24.40;;
908;SDS011;441;51.192;6.788;2023-06-24T13:03:18;26.77;;;25.57;;
908;SDS011;441;51.192;6.788;2023-06-24T13:05:45;26.30;;;25.40;;
908;SDS011;441;51.192;6.788;2023-06-24T13:08:12;29.07;;;27.97;;
908;SDS011;441;51.192;6.788;2023-06-24T13:10:40;27.87;;;26.87;;
908;SDS011;441;51.192;6.788;2023-06-24T13:13:07;26.80;;;25.57;;
908;SDS011;441;51.192;6.788;2023-06-24T13:15:35;26.43;;;25.43;;
908;SDS011;441;51.192;6.788;2023-06-24T13:18:02;27.20;;;26.20;;
908;SDS011;441;51.192;6.788;2023-06-24T13:20:29;27.90;;;26.90;;
908;SDS011;441;51.192;6.788;2023-06-24T13:22:56;25.80;;;24.80;;
908;SDS011;441;51.192;6.788;2023-06-24T13:25:23;26.57;;;25.60;;
908;SDS011;441;51.192;6.788;2023-06-24T13:27:50;27.17;;;26.17;;
908;SDS011;441;51.192;6.788;2023-06-24T13:30:17;26.57;;;25.57;;
908;SDS011;441;51.192;6.788;2023-06-24T13:32:46;26.50;;;25.53;;
908;SDS011;441;51.192;6.788;2023-06-24T13:35:14;26.70;;;25.70;;
908;SDS011;441;51.192;6.788;2023-06-24T13:37:41;25.23;;;24.33;;
908;SDS011;441;51.192;6.788;2023-06-24T13:40:08;26.57;;;25.57;;
908;SDS011;441;51.192;6.788;2023-06-24T13:42:36;27.20;;;26.30;;
908;SDS011;441;51.192;6.788;2023-06-24T13:45:03;26.50;;;25.60;;
908;SDS011;441;51.192;6.788;2023-06-24T13:47:30;26.17;;;25.10;;
908;SDS011;441;51.192;6.788;2023-06-24T13:49:59;26.07;;;25.13;;
908;SDS011;441;51.192;6.788;2023-06-24T13:52:26;26.33;;;25.40;;
908;SDS011;441;51.192;6.788;2023-06-24T13:54:53;26.77;;;25.80;;
908;SDS011;441;51.192;6.788;2023-06-24T13:57:20;27.77;;;26.77;;
908;SDS011;441;51.192;6.788;2023-06-24T13:59:47;28.27;;;27.17;;
908;SDS011;441;51.192;6.788;2023-06-24T14:02:14;28.13;;;27.13;;
908;SDS011;441;51.192;6.788;2023-06-24T14:04:41;27.17;;;26.17;;
908;SDS011;441;51.192;6.788;2023-06-24T14:07:10;27.30;;;26.40;;
908;SDS011;441;51.192;6.788;2023-06-24T14:09:37;26.53;;;25.50;;
908;SDS011;441;51.192;6.788;2023-06-24T14:12:05;25.97;;;25.07;;
908;SDS011;441;51.192;6.788;2023-06-24T14:14:33;26.57;;;25.47;;
908;SDS011;441;51.192;6.788;2023-06-24T14:17:01;26.10;;;25.20;;
908;SDS011;441;51.192;6.788;2023-06-24T14:19:27;24.87;;;23.97;;
908;SDS011;441;51.192;6.788;2023-06-24T14:21:54;26.47;;;25.57;;
908;SDS011;441;51.192;6.788;2023-06-24T14:24:24;26.53;;;25.63;;
908;SDS011;441;51.192;6.788;2023-06-24T14:26:50;26.30;;;25.20;;
908;SDS011;441;51.192;6.788;2023-06-24T14:29:17;27.07;;;26.07;;
908;SDS011;441;51.192;6.788;2023-06-24T14:31:44;26.80;;;25.80;;
908;SDS011;441;51.192;6.788;2023-06-24T14:34:11;28.57;;;27.47;;
908;SDS011;441;51.192;6.788;2023-06-24T14:36:38;25.57;;;24.57;;
908;SDS011;441;51.192;6.788;2023-06-24T14:39:05;27.33;;;26.20;;
908;SDS011;441;51.192;6.788;2023-06-24T14:41:34;31.43;;;30.10;;
908;SDS011;441;51.192;6.788;2023-06-24T14:44:00;28.67;;;27.10;;
908;SDS011;441;51.192;6.788;2023-06-24T14:46:27;28.13;;;26.70;;
908;SDS011;441;51.192;6.788;2023-06-24T14:48:54;27.30;;;25.50;;
908;SDS011;441;51.192;6.788;2023-06-24T14:51:21;27.10;;;25.93;;
908;SDS011;441;51.192;6.788;2023-06-24T14:53:50;26.83;;;25.33;;
908;SDS011;441;51.192;6.788;2023-06-24T14:56:16;25.73;;;24.53;;
908;SDS011;441;51.192;6.788;2023-06-24T14:58:45;26.20;;;25.07;;
908;SDS011;441;51.192;6.788;2023-06-24T15:01:12;28.83;;;27.43;;
908;SDS011;441;51.192;6.788;2023-06-24T15:03:38;26.33;;;25.13;;
908;SDS011;441;51.192;6.788;2023-06-24T15:06:05;27.77;;;26.67;;
908;SDS011;441;51.192;6.788;2023-06-24T15:08:32;29.97;;;28.67;;
908;SDS011;441;51.192;6.788;2023-06-24T15:10:59;27.37;;;26.23;;
908;SDS011;441;51.192;6.788;2023-06-24T15:13:26;27.43;;;26.43;;
908;SDS011;441;51.192;6.788;2023-06-24T15:15:54;29.30;;;28.10;;
908;SDS011;441;51.192;6.788;2023-06-24T15:18:21;27.53;;;26.43;;
908;SDS011;441;51.192;6.788;2023-06-24T15:20:48;28.03;;;26.90;;
908;SDS011;441;51.192;6.788;2023-06-24T15:23:16;28.50;;;27.40;;
908;SDS011;441;51.192;6.788;2023-06-24T15:25:43;27.03;;;25.83;;
908;SDS011;441;51.192;6.788;2023-06-24T15:28:10;28.33;;;27.13;;
908;SDS011;441;51.192;6.788;2023-06-24T15:30:36;27.77;;;26.77;;
908;SDS011;441;51.192;6.788;2023-06-24T15:33:05;27.33;;;26.23;;